Time;durP1;ratioP1;P1;durP2;ratioP2;P2;SDS_P1;SDS_P2;PMS_P1;PMS_P2;Temp;Humidity;BMP_temperature;BMP_pressure;BME280_temperature;BME280_humidity;BME280_pressure;Samples;Min_cycle;Max_cycle;Signal;HPM_P1;HPM_P2
2023/03/08 00:40:05;;;;;;;7.13;4.53;;;1.20;99.90;;;;;;4819607;28;20692;-80
2023/03/08 01:10:36;;;;;;;5.60;4.37;;;1.20;99.90;;;;;;4668888;29;20231;-84
2023/03/08 01:35:32;;;;;;;4.03;3.17;;;1.00;99.90;;;;;;4575098;30;20746;-81
2023/03/08 02:16:40;;;;;;;3.07;2.50;;;0.70;99.90;;;;;;4572375;30;20286;-80
2023/03/08 02:47:04;;;;;;;5.40;2.47;;;1.10;99.90;;;;;;4601593;30;20212;-81
2023/03/08 03:12:30;;;;;;;4.30;2.10;;;1.10;99.90;;;;;;4656863;29;20630;-82
2023/03/08 03:37:30;;;;;;;5.13;2.17;;;1.20;99.90;;;;;;4555858;30;21240;-81
2023/03/08 04:02:52;;;;;;;7.67;4.73;;;1.30;99.90;;;;;;4659920;29;20610;-80
2023/03/08 04:23:14;;;;;;;11.77;7.77;;;1.30;99.90;;;;;;4601671;29;20372;-81
2023/03/08 05:03:25;;;;;;;12.97;8.97;;;1.30;99.90;;;;;;4730030;29;21098;-81
2023/03/08 05:28:33;;;;;;;16.23;10.77;;;1.20;99.90;;;;;;4618740;29;20491;-84
2023/03/08 05:54:17;;;;;;;14.87;10.83;;;1.00;99.90;;;;;;4649884;29;20267;-81
2023/03/08 06:24:59;;;;;;;16.63;10.87;;;1.10;99.90;;;;;;4761680;29;20230;-79
2023/03/08 06:44:58;;;;;;;13.67;9.20;;;1.40;98.20;;;;;;4726227;29;20213;-80
2023/03/08 07:15:02;;;;;;;11.87;8.13;;;1.90;94.00;;;;;;4635162;30;20545;-81
2023/03/08 07:35:48;;;;;;;11.27;7.20;;;2.10;90.80;;;;;;4748477;28;20327;-79
2023/03/08 08:11:25;;;;;;;10.43;6.17;;;2.70;86.50;;;;;;4782941;28;20953;-80
2023/03/08 08:46:33;;;;;;;8.00;6.40;;;3.20;84.90;;;;;;4706570;28;20572;-80
2023/03/08 09:02:13;;;;;;;10.17;6.07;;;3.30;85.50;;;;;;4814139;28;20667;-81
2023/03/08 09:42:22;;;;;;;13.30;5.63;;;3.50;82.60;;;;;;4797311;28;20458;-80
2023/03/08 10:03:03;;;;;;;8.90;4.87;;;3.60;80.20;;;;;;4870502;28;20245;-82
2023/03/08 10:23:01;;;;;;;9.60;5.83;;;3.00;79.70;;;;;;4695240;30;20239;-81
2023/03/08 10:53:52;;;;;;;8.83;4.87;;;3.50;80.80;;;;;;4758597;29;20213;-80
2023/03/08 11:28:59;;;;;;;6.63;4.40;;;4.50;72.10;;;;;;4600832;29;20860;-82
2023/03/08 11:54:35;;;;;;;6.97;4.83;;;3.90;78.80;;;;;;4742707;29;20196;-79
2023/03/08 12:14:56;;;;;;;7.47;4.67;;;4.10;75.50;;;;;;4731742;29;20752;-79
2023/03/08 12:40:06;;;;;;;5.87;3.70;;;3.90;76.90;;;;;;4765657;29;20789;-80
2023/03/08 13:36:01;;;;;;;5.70;4.70;;;4.90;72.20;;;;;;4855436;28;20493;-81
2023/03/08 14:01:14;;;;;;;10.80;5.57;;;5.60;72.30;;;;;;4721852;29;20855;-81
2023/03/08 14:26:32;;;;;;;6.27;4.50;;;5.20;69.00;;;;;;4657422;29;20569;-80
2023/03/08 15:02:19;;;;;;;8.67;6.00;;;5.00;70.30;;;;;;4798525;28;20723;-82
2023/03/08 15:32:53;;;;;;;10.47;6.10;;;4.50;74.00;;;;;;4749797;29;20264;-81
2023/03/08 15:58:10;;;;;;;10.13;6.07;;;4.20;76.10;;;;;;4662367;29;20570;-81
2023/03/08 16:23:35;;;;;;;11.53;7.57;;;3.80;80.20;;;;;;4763519;29;20205;-81
2023/03/08 16:43:50;;;;;;;14.73;7.73;;;3.60;81.00;;;;;;4558182;30;21006;-79
2023/03/08 17:04:08;;;;;;;7.13;5.73;;;3.50;82.00;;;;;;4578693;30;20221;-80
2023/03/08 18:50:27;;;;;;;13.37;9.83;;;2.10;99.90;;;;;;4764709;28;20458;-80
2023/03/08 19:15:47;;;;;;;18.47;10.77;;;1.60;99.90;;;;;;4782020;28;20212;-81
2023/03/08 19:35:47;;;;;;;17.30;10.83;;;1.40;99.90;;;;;;4729564;29;20677;-81
2023/03/08 20:01:40;;;;;;;14.60;9.97;;;1.30;99.90;;;;;;4786221;29;20446;-82
2023/03/08 20:42:06;;;;;;;18.37;11.23;;;1.10;99.90;;;;;;4910803;28;20254;-81
2023/03/08 21:12:37;;;;;;;24.23;12.37;;;1.00;99.90;;;;;;4856828;29;20217;-80
2023/03/08 21:42:26;;;;;;;28.57;16.50;;;0.90;99.90;;;;;;4741082;29;21372;-80
2023/03/08 22:28:02;;;;;;;24.03;15.07;;;0.80;99.90;;;;;;4665438;29;20671;-78
2023/03/08 22:53:55;;;;;;;29.97;17.07;;;0.70;99.90;;;;;;4525203;30;20226;-80
2023/03/08 23:24:29;;;;;;;23.93;14.93;;;0.80;99.90;;;;;;4883100;28;20698;-79
2023/03/08 23:49:53;;;;;;;27.33;16.17;;;0.90;99.90;;;;;;4908098;28;20663;-82
2023/03/08 23:54:12;;;;;;;25.73;15.67;;;0.90;99.90;;;;;;4878736;28;20473;-78
